Flight Track Log - Related Links

Times and Time Zones

All times are in EDT time to prevent confusion due to time zone crossing. See the UAL33 flight status page for this flight to view local times or setup timezone preferences in your user account.

Time Position Orientation Groundspeed Altitude Reporting Facility
EDT Latitude Longitude Course Direction KTS MPH feet Rate Location/Type
Mon 10:00:58 PM 41.9690 -87.9180 272° West 22 25  Level FlightAware ADS-B
Mon 10:01:25 PM 41.9690 -87.9200 270° West 29 33 132 Level FlightAware ADS-B
Mon 10:01:43 PM 41.9700 -87.9210 323° Northwest 24 28 137 Level FlightAware ADS-B
Mon 10:02:09 PM 41.9700 -87.9220 270° West 25 29 141 Level FlightAware ADS-B
Mon 10:02:37 PM 41.9700 -87.9240 270° West 34 39 146 Level FlightAware ADS-B
Mon 10:03:14 PM 41.9700 -87.9280 270° West 19 22 153 Level FlightAware ADS-B
Mon 10:03:45 PM 41.9700 -87.9300 270° West 24 28 162 Level FlightAware ADS-B
Mon 10:06:00 PM 41.9000 -88.2079 270° West  Level FlightAware Approximate
Mon 10:07:00 PM 41.8760 -88.3349 242° Southwest  Level FlightAware Approximate
Mon 10:08:00 PM 41.8387 -88.4566 255° West  Level FlightAware Approximate
Mon 10:09:00 PM 41.8112 -88.5836 254° West  Level FlightAware Approximate
Mon 10:10:00 PM 41.7831 -88.7105 253° West  Level FlightAware Approximate
Mon 10:12:07 PM 41.9690 -87.9300 90° East 10 12  Level FlightAware ADS-B
Mon 10:13:05 PM 41.9680 -87.8920 92° East 156 180 1,600 1,865 Climbing FlightAware ADS-B
Mon 10:13:21 PM 41.9600 -87.8790 130° Southeast 169 194 2,300 2,143 Climbing FlightAware ADS-B
Mon 10:13:33 PM 41.9510 -87.8740 158° South 191 220 2,600 2,154 Climbing FlightAware ADS-B
Mon 10:14:00 PM 41.9260 -87.8830 195° South 226 260 3,700 2,379 Climbing FlightAware ADS-B
Mon 10:14:31 PM 41.8970 -87.9120 217° Southwest 254 292 4,900 1,424 Climbing FlightAware ADS-B
Mon 10:14:59 PM 41.8700 -87.9390 217° Southwest 255 293 5,100 109 Climbing FlightAware ADS-B
Mon 10:15:26 PM 41.8460 -87.9630 217° Southwest 257 296 5,000 -107 Descending FlightAware ADS-B
Mon 10:15:55 PM 41.8220 -87.9980 227° Southwest 258 297 5,000 133 Level FlightAware ADS-B
Mon 10:16:11 PM 41.8180 -88.0210 257° West 263 303 5,100 1,773 Climbing FlightAware ADS-B
Mon 10:16:39 PM 41.8300 -88.0640 291° West 272 313 6,300 3,412 Climbing FlightAware ADS-B
Mon 10:17:02 PM 41.8490 -88.0930 311° West 271 312 8,000 4,154 Climbing FlightAware ADS-B
Mon 10:17:31 PM 41.8700 -88.1320 306° West 265 305 9,900 3,907 Climbing FlightAware ADS-B
Mon 10:17:45 PM 41.8730 -88.1550 280° West 264 304 10,800 3,207 Climbing FlightAware ADS-B
Mon 10:18:29 PM 41.8720 -88.2300 269° West 290 334 13,000 3,167 Climbing FlightAware ADS-B
Mon 10:18:57 PM 41.8700 -88.2800 267° West 301 346 14,600 3,343 Climbing FlightAware ADS-B
Mon 10:19:39 PM 41.8550 -88.3600 256° West 322 371 16,900 3,214 Climbing FlightAware ADS-B
Mon 10:20:21 PM 41.8370 -88.4410 253° West 335 386 19,100 3,073 Climbing FlightAware ADS-B
Mon 10:21:01 PM 41.8180 -88.5230 253° West 347 399 21,100 3,036 Climbing FlightAware ADS-B
Mon 10:21:44 PM 41.7990 -88.6110 254° West 353 406 23,300 2,864 Climbing FlightAware ADS-B
Mon 10:22:29 PM 41.7760 -88.7090 253° West 365 420 25,300 2,541 Climbing FlightAware ADS-B
Mon 10:23:09 PM 41.7560 -88.7980 253° West 378 435 26,900 2,325 Climbing FlightAware ADS-B
Mon 10:23:49 PM 41.7370 -88.8830 253° West 386 444 28,400 2,286 Climbing FlightAware ADS-B
Mon 10:24:33 PM 41.7100 -88.9830 250° West 391 450 30,100 2,143 Climbing FlightAware ADS-B
Mon 10:25:13 PM 41.6750 -89.0690 241° Southwest 401 461 31,400 1,880 Climbing FlightAware ADS-B
Mon 10:25:56 PM 41.6360 -89.1630 241° Southwest 402 463 32,700 1,793 Climbing FlightAware ADS-B
Mon 10:26:40 PM 41.5950 -89.2610 241° Southwest 401 461 34,000 1,286 Climbing FlightAware ADS-B
Mon 10:27:20 PM 41.5600 -89.3480 242° Southwest 403 464 34,500 723 Climbing FlightAware ADS-B
Mon 10:28:03 PM 41.5200 -89.4410 240° Southwest 408 470 35,000 357 Climbing FlightAware ADS-B
Mon 10:28:44 PM 41.4830 -89.5320 242° Southwest 417 480 35,000  Level FlightAware ADS-B
Mon 10:29:27 PM 41.4410 -89.6310 241° Southwest 440 506 35,000 146 Level FlightAware ADS-B
Mon 10:30:06 PM 41.4020 -89.7250 241° Southwest 445 512 35,200 1,059 Climbing FlightAware ADS-B
Mon 10:30:52 PM 41.3560 -89.8340 241° Southwest 440 506 36,500 1,586 Climbing FlightAware ADS-B
Mon 10:31:33 PM 41.3170 -89.9260 241° Southwest 435 501 37,500 1,357 Climbing FlightAware ADS-B
Mon 10:32:16 PM 41.2730 -90.0290 240° Southwest 434 499 38,400 1,244 Climbing FlightAware ADS-B
Mon 10:32:55 PM 41.2350 -90.1180 240° Southwest 427 491 39,200 1,171 Climbing FlightAware ADS-B
Mon 10:33:38 PM 41.1940 -90.2150 241° Southwest 424 488 40,000 565 Climbing FlightAware ADS-B
Mon 10:34:20 PM 41.1520 -90.3120 240° Southwest 425 489 40,000  Level FlightAware ADS-B
Mon 10:35:03 PM 41.1120 -90.4040 240° Southwest 423 487 40,000  Level FlightAware ADS-B
Mon 10:35:44 PM 41.0710 -90.5000 240° Southwest 420 483 40,000  Level FlightAware ADS-B
Mon 10:36:25 PM 41.0320 -90.5890 240° Southwest 419 482 40,000  Level FlightAware ADS-B
Mon 10:37:07 PM 40.9910 -90.6840 240° Southwest 420 483 40,000  Level FlightAware ADS-B
Mon 10:37:48 PM 40.9540 -90.7700 240° Southwest 420 483 40,000  Level FlightAware ADS-B
Mon 10:38:34 PM 40.9050 -90.8800 240° Southwest 421 484 40,000  Level FlightAware ADS-B
Mon 10:39:15 PM 40.8660 -90.9700 240° Southwest 420 483 40,000  Level FlightAware ADS-B
Mon 10:39:54 PM 40.8280 -91.0560 240° Southwest 419 482 40,000  Level FlightAware ADS-B
Mon 10:40:37 PM 40.7870 -91.1490 240° Southwest 419 482 40,000  Level FlightAware ADS-B
Mon 10:41:20 PM 40.7440 -91.2470 240° Southwest 418 481 40,000  Level FlightAware ADS-B
Mon 10:42:05 PM 40.7010 -91.3440 240° Southwest 415 478 40,000  Level FlightAware ADS-B
Mon 10:42:45 PM 40.6630 -91.4300 240° Southwest 405 466 40,000 -506 Level FlightAware ADS-B
Mon 10:43:28 PM 40.6220 -91.5220 240° Southwest 399 459 39,300 -1,301 Descending FlightAware ADS-B
Mon 10:44:08 PM 40.5840 -91.6050 239° Southwest 397 457 38,200 -1,500 Descending FlightAware ADS-B
Mon 10:44:52 PM 40.5440 -91.6960 240° Southwest 395 455 37,200 -1,465 Descending FlightAware ADS-B
Mon 10:45:34 PM 40.5050 -91.7820 239° Southwest 392 451 36,100 -1,537 Descending FlightAware ADS-B
Mon 10:46:14 PM 40.4680 -91.8630 239° Southwest 390 449 35,100 -1,500 Descending FlightAware ADS-B
Mon 10:46:50 PM 40.4350 -91.9360 239° Southwest 388 447 34,200 -1,200 Descending FlightAware ADS-B
Mon 10:47:54 PM 40.3780 -92.0640 240° Southwest 385 443 33,100 -1,165 Descending FlightAware ADS-B
Mon 10:48:33 PM 40.3410 -92.1440 239° Southwest 403 464 32,200 -786 Descending FlightAware ADS-B
Mon 10:49:18 PM 40.2960 -92.2420 239° Southwest 417 480 32,000 -145 Descending FlightAware ADS-B
Mon 10:49:56 PM 40.2580 -92.3250 239° Southwest 424 488 32,000  Level FlightAware ADS-B
Mon 10:50:37 PM 40.2170 -92.4140 239° Southwest 423 487 32,000  Level FlightAware ADS-B
Mon 10:51:18 PM 40.1760 -92.5040 239° Southwest 422 486 32,000  Level FlightAware ADS-B
Mon 10:52:07 PM 40.1200 -92.6050 234° Southwest 427 491 32,000  Level FlightAware ADS-B
Mon 10:52:43 PM 40.0660 -92.6640 220° Southwest 428 493 32,000  Level FlightAware ADS-B
Mon 10:53:31 PM 39.9930 -92.7410 219° Southwest 428 493 32,000  Level FlightAware ADS-B
Mon 10:54:11 PM 39.9300 -92.8070 219° Southwest 427 491 32,000  Level FlightAware ADS-B
Mon 10:54:51 PM 39.8680 -92.8720 219° Southwest 426 490 32,000  Level FlightAware ADS-B
Mon 10:55:33 PM 39.8030 -92.9400 219° Southwest 427 491 32,000  Level FlightAware ADS-B
Mon 10:56:17 PM 39.7360 -93.0100 219° Southwest 426 490 32,000  Level FlightAware ADS-B
Mon 10:56:57 PM 39.6730 -93.0740 218° Southwest 426 490 32,000  Level FlightAware ADS-B
Mon 10:57:41 PM 39.6120 -93.1370 219° Southwest 426 490 32,000  Level FlightAware ADS-B
Mon 10:58:17 PM 39.5510 -93.2010 219° Southwest 426 490 32,000  Level FlightAware ADS-B
Mon 10:59:05 PM 39.4770 -93.2770 218° Southwest 428 493 32,000  Level FlightAware ADS-B
Mon 10:59:45 PM 39.4150 -93.3410 219° Southwest 429 494 32,000  Level FlightAware ADS-B
Mon 11:00:30 PM 39.3440 -93.4130 218° Southwest 432 497 32,000  Level FlightAware ADS-B
Mon 11:01:09 PM 39.2830 -93.4760 219° Southwest 432 497 32,000  Level FlightAware ADS-B
Mon 11:01:53 PM 39.2130 -93.5460 218° Southwest 432 497 32,000  Level FlightAware ADS-B
Mon 11:02:33 PM 39.1510 -93.6090 218° Southwest 433 498 32,000  Level FlightAware ADS-B
Mon 11:03:18 PM 39.0820 -93.6800 219° Southwest 432 497 32,000  Level FlightAware ADS-B
Mon 11:03:57 PM 39.0200 -93.7440 219° Southwest 431 496 32,000  Level FlightAware ADS-B
Mon 11:04:41 PM 38.9510 -93.8140 218° Southwest 432 497 32,000  Level FlightAware ADS-B
Mon 11:05:23 PM 38.8830 -93.8830 218° Southwest 433 498 32,000  Level FlightAware ADS-B
Mon 11:06:07 PM 38.8150 -93.9520 218° Southwest 434 499 32,000  Level FlightAware ADS-B
Mon 11:06:45 PM 38.7550 -94.0120 218° Southwest 435 501 32,000  Level FlightAware ADS-B
Mon 11:07:28 PM 38.6870 -94.0800 218° Southwest 436 502 32,000  Level FlightAware ADS-B
Mon 11:08:10 PM 38.6210 -94.1460 218° Southwest 434 499 32,000  Level FlightAware ADS-B
Mon 11:08:54 PM 38.5490 -94.2160 217° Southwest 435 501 32,000  Level FlightAware ADS-B
Mon 11:09:34 PM 38.4860 -94.2790 218° Southwest 435 501 32,000  Level FlightAware ADS-B
Mon 11:10:16 PM 38.4190 -94.3440 217° Southwest 437 503 32,000  Level FlightAware ADS-B
Mon 11:10:56 PM 38.3550 -94.4070 218° Southwest 437 503 32,000  Level FlightAware ADS-B
Mon 11:11:32 PM 38.2970 -94.4640 218° Southwest 438 504 32,000  Level FlightAware ADS-B
Mon 11:12:14 PM 38.2240 -94.5200 211° Southwest 444 511 32,000  Level FlightAware ADS-B
Mon 11:13:00 PM 38.1390 -94.5740 207° Southwest 440 506 32,000  Level FlightAware ADS-B
Mon 11:13:40 PM 38.0660 -94.6210 207° Southwest 440 506 32,000  Level FlightAware ADS-B
Mon 11:14:24 PM 37.9870 -94.6720 207° Southwest 441 507 32,000  Level FlightAware ADS-B
Mon 11:15:04 PM 37.9140 -94.7190 207° Southwest 442 509 32,000  Level FlightAware ADS-B
Mon 11:15:48 PM 37.8320 -94.7710 207° Southwest 463 533 32,000  Level FlightAware ADS-B
Mon 11:16:28 PM 37.7560 -94.8190 207° Southwest 474 545 32,000  Level FlightAware ADS-B
Mon 11:17:08 PM 37.6760 -94.8700 207° Southwest 478 550 32,000  Level FlightAware ADS-B
Mon 11:17:52 PM 37.5880 -94.9260 207° Southwest 478 550 32,000  Level FlightAware ADS-B
Mon 11:18:32 PM 37.5080 -94.9760 206° Southwest 478 550 32,000  Level FlightAware ADS-B
Mon 11:19:16 PM 37.4220 -95.0310 207° Southwest 479 551 32,000  Level FlightAware ADS-B
Mon 11:19:56 PM 37.3430 -95.0800 206° Southwest 478 550 32,000  Level FlightAware ADS-B
Mon 11:20:41 PM 37.2540 -95.1360 207° Southwest 478 550 32,000  Level FlightAware ADS-B
Mon 11:21:21 PM 37.1730 -95.1870 207° Southwest 480 552 32,000  Level FlightAware ADS-B
Mon 11:22:05 PM 37.0860 -95.2410 206° Southwest 481 554 32,000  Level FlightAware ADS-B
Mon 11:22:41 PM 37.0150 -95.2850 206° Southwest 480 552 32,000  Level FlightAware ADS-B
Mon 11:23:30 PM 36.9160 -95.3470 207° Southwest 481 554 32,000  Level FlightAware ADS-B
Mon 11:24:17 PM 36.8630 -95.3800 206° Southwest 481 554 32,000  Level FlightAware ADS-B
Mon 11:25:06 PM 36.7270 -95.4640 206° Southwest 476 548 32,000  Level FlightAware ADS-B
Mon 11:25:44 PM 36.6510 -95.5100 206° Southwest 475 547 32,000  Level FlightAware ADS-B
Mon 11:26:30 PM 36.5620 -95.5650 206° Southwest 475 547 32,000  Level FlightAware ADS-B
Mon 11:27:14 PM 36.4740 -95.6190 206° Southwest 476 548 32,000  Level FlightAware ADS-B
Mon 11:28:06 PM 36.3730 -95.6810 206° Southwest 479 551 32,000  Level FlightAware ADS-B
Mon 11:28:52 PM 36.2860 -95.7340 206° Southwest 479 551 32,000  Level FlightAware ADS-B
Mon 11:29:48 PM 36.1760 -95.7970 205° Southwest 481 554 32,000  Level FlightAware ADS-B
Mon 11:30:24 PM 36.1130 -95.8320 204° Southwest 481 554 32,000  Level FlightAware ADS-B
Mon 11:31:11 PM 35.9870 -95.8620 191° South 485 558 32,000  Level FlightAware ADS-B
Mon 11:31:46 PM 35.9110 -95.8880 195° South 487 560 32,000  Level FlightAware ADS-B
Mon 11:32:37 PM 35.8170 -95.9190 195° South 487 560 32,000  Level FlightAware ADS-B
Mon 11:33:13 PM 35.7500 -95.9410 195° South 487 560 32,000  Level FlightAware ADS-B
Mon 11:34:01 PM 35.6610 -95.9710 195° South 487 560 32,000  Level FlightAware ADS-B
Mon 11:34:37 PM 35.5950 -95.9930 195° South 487 560 32,000  Level FlightAware ADS-B
Mon 11:35:23 PM 35.4370 -96.0530 197° South 490 564 32,000  Level FlightAware ADS-B
Mon 11:36:05 PM 35.3450 -96.0840 195° South 493 567 32,000  Level FlightAware ADS-B
Mon 11:36:45 PM 35.2550 -96.1150 196° South 491 565 32,000  Level FlightAware ADS-B
Mon 11:37:29 PM 35.1600 -96.1480 196° South 491 565 32,000  Level FlightAware ADS-B
Mon 11:38:09 PM 35.0730 -96.1780 196° South 489 563 32,000  Level FlightAware ADS-B
Mon 11:38:53 PM 34.9770 -96.2110 196° South 489 563 32,000  Level FlightAware ADS-B
Mon 11:39:33 PM 34.8900 -96.2400 195° South 487 560 32,000  Level FlightAware ADS-B
Mon 11:40:11 PM 34.8080 -96.2680 196° South 489 563 32,000  Level FlightAware ADS-B
Mon 11:40:58 PM 34.7050 -96.3030 196° South 490 564 32,000  Level FlightAware ADS-B
Mon 11:41:38 PM 34.6170 -96.3330 196° South 492 566 32,000  Level FlightAware ADS-B
Mon 11:42:22 PM 34.5200 -96.3660 196° South 493 567 32,000  Level FlightAware ADS-B
Mon 11:43:02 PM 34.4320 -96.3950 195° South 493 567 32,000  Level FlightAware ADS-B
Mon 11:43:48 PM 34.3310 -96.4290 196° South 493 567 32,000  Level FlightAware ADS-B
Mon 11:44:28 PM 34.2430 -96.4580 195° South 488 562 32,000  Level FlightAware ADS-B
Mon 11:45:12 PM 34.1480 -96.4900 196° South 486 559 32,000  Level FlightAware ADS-B
Mon 11:45:52 PM 34.0610 -96.5190 195° South 487 560 32,000  Level FlightAware ADS-B
Mon 11:46:36 PM 33.9640 -96.5520 196° South 487 560 32,000  Level FlightAware ADS-B
Mon 11:47:15 PM 33.8810 -96.5790 195° South 487 560 32,000  Level FlightAware ADS-B
Mon 11:48:00 PM 33.7850 -96.6110 195° South 488 562 32,000  Level FlightAware ADS-B
Mon 11:48:39 PM 33.6960 -96.6400 195° South 490 564 32,000  Level FlightAware ADS-B
Mon 11:49:23 PM 33.6000 -96.6720 196° South 491 565 32,000  Level FlightAware ADS-B
Mon 11:50:03 PM 33.5120 -96.7010 195° South 494 568 32,000  Level FlightAware ADS-B
Mon 11:50:43 PM 33.4214 -96.7307 195° South 494 568 32,000  Level FlightAware ADS-B
Mon 11:51:15 PM 33.3523 -96.7535 195° South 492 566 32,000  Level FlightAware ADS-B
Mon 11:51:48 PM 33.2790 -96.7776 195° South 492 566 32,000  Level FlightAware ADS-B
Mon 11:52:20 PM 33.2097 -96.8003 195° South 492 566 32,000  Level FlightAware ADS-B
Mon 11:52:53 PM 33.1355 -96.8243 195° South 494 568 32,000  Level FlightAware ADS-B
Mon 11:53:24 PM 33.0681 -96.8462 195° South 497 572 32,000  Level FlightAware ADS-B
Mon 11:54:13 PM 32.9584 -96.8820 195° South 497 572 32,000  Level FlightAware ADS-B
Mon 11:54:57 PM 32.8573 -96.8925 185° South 498 573 32,000  Level FlightAware ADS-B
Mon 11:55:05 PM 32.8381 -96.8890 171° South 513 590 32,000  Level FlightAware ADS-B
Mon 11:55:44 PM 32.7473 -96.8629 166° South 513 590 32,000  Level FlightAware ADS-B
Mon 11:56:15 PM 32.6759 -96.8422 166° South 512 589 32,000  Level FlightAware ADS-B
Mon 11:56:49 PM 32.5995 -96.8201 166° South 510 587 32,000  Level FlightAware ADS-B
Mon 11:57:43 PM 32.4756 -96.7846 166° South 508 585 32,000 -58 Level FlightAware ADS-B
Mon 11:58:32 PM 32.3632 -96.7527 167° South 509 586 31,900 -449 Descending FlightAware ADS-B
Mon 11:59:30 PM 32.2357 -96.7164 166° South 493 567 31,200 -768 Descending FlightAware ADS-B
Tue 12:00:37 AM 32.0955 -96.6767 167° South 455 524 30,300 -866 Descending FlightAware ADS-B
Tue 12:01:07 AM 32.0338 -96.6593 167° South 447 514 29,800 -987 Descending FlightAware ADS-B
Tue 12:01:56 AM 31.9360 -96.6314 166° South 440 506 29,000 -593 Descending FlightAware ADS-B
Tue 12:02:28 AM 31.8741 -96.6140 167° South 435 501 29,000  Level FlightAware ADS-B
Tue 12:03:37 AM 31.7390 -96.5760 167° South 439 505 29,000  Level FlightAware ADS-B
Tue 12:04:24 AM 31.6458 -96.5499 167° South 440 506 29,000 -56 Level FlightAware ADS-B
Tue 12:05:24 AM 31.5254 -96.5151 166° South 440 506 28,900 -567 Descending FlightAware ADS-B
Tue 12:06:31 AM 31.3959 -96.4674 161° South 431 496 27,800 -1,200 Descending FlightAware ADS-B
Tue 12:06:59 AM 31.3451 -96.4431 158° South 429 494 27,000 -1,729 Descending FlightAware ADS-B
Tue 12:07:30 AM 31.2895 -96.4115 154° Southeast 424 488 26,100 -2,000 Descending FlightAware ADS-B
Tue 12:08:32 AM 31.1820 -96.3504 154° Southeast 419 482 23,900 -1,891 Descending FlightAware ADS-B
Tue 12:09:02 AM 31.1297 -96.3206 154° Southeast 411 473 23,200 -1,600 Descending FlightAware ADS-B
Tue 12:09:32 AM 31.0782 -96.2915 154° Southeast 407 468 22,300 -1,895 Descending FlightAware ADS-B
Tue 12:11:34 AM 30.8784 -96.1784 154° Southeast 383 441 18,400 -1,953 Descending FlightAware ADS-B
Tue 12:12:24 AM 30.7989 -96.1335 154° Southeast 375 432 16,700 -1,729 Descending FlightAware ADS-B
Tue 12:14:24 AM 30.6164 -96.0307 154° Southeast 352 405 13,500 -1,600 Descending FlightAware ADS-B
Tue 12:14:54 AM 30.5724 -96.0062 154° Southeast 345 397 12,700 -1,574 Descending FlightAware ADS-B
Tue 12:15:25 AM 30.5291 -95.9822 154° Southeast 340 391 11,900 -1,516 Descending FlightAware ADS-B
Tue 12:16:25 AM 30.4447 -95.9346 154° Southeast 325 374 10,400 -1,046 Descending FlightAware ADS-B
Tue 12:17:14 AM 30.3820 -95.8998 154° Southeast 291 335 10,000 -656 Descending FlightAware ADS-B
Tue 12:17:29 AM 30.3638 -95.8896 154° Southeast 289 333 9,700 -1,187 Descending FlightAware ADS-B
Tue 12:18:45 AM 30.2742 -95.8396 154° Southeast 279 321 8,200 -1,190 Descending FlightAware ADS-B
Tue 12:19:30 AM 30.2216 -95.8104 154° Southeast 274 315 7,300 -1,174 Descending FlightAware ADS-B
Tue 12:20:17 AM 30.1691 -95.7812 154° Southeast 270 311 6,400 -1,143 Descending FlightAware ADS-B
Tue 12:20:33 AM 30.1512 -95.7711 154° Southeast 268 308 6,100 -1,174 Descending FlightAware ADS-B
Tue 12:21:03 AM 30.1173 -95.7524 154° Southeast 264 304 5,500 -1,200 Descending FlightAware ADS-B
Tue 12:21:18 AM 30.1007 -95.7432 154° Southeast 259 298 5,200 -1,091 Descending FlightAware ADS-B
Tue 12:21:36 AM 30.0818 -95.7328 155° Southeast 251 289 4,900 -1,000 Descending FlightAware ADS-B
Tue 12:21:48 AM 30.0694 -95.7259 154° Southeast 244 281 4,700 -968 Descending FlightAware ADS-B
Tue 12:22:07 AM 30.0505 -95.7154 154° Southeast 235 270 4,400 -882 Descending FlightAware ADS-B
Tue 12:22:22 AM 30.0361 -95.7074 154° Southeast 228 262 4,200 -581 Descending FlightAware ADS-B
Tue 12:22:38 AM 30.0213 -95.6992 154° Southeast 221 254 4,100 -480 Descending FlightAware ADS-B
Tue 12:22:47 AM 30.0133 -95.6946 154° Southeast 214 246 4,000 -500 Descending FlightAware ADS-B
Tue 12:22:50 AM 30.0103 -95.6926 150° Southeast 213 245 4,000  Level FlightAware ADS-B
Tue 12:22:54 AM 30.0076 -95.6903 144° Southeast 212 244 4,000  Level FlightAware ADS-B
Tue 12:22:58 AM 30.0044 -95.6869 137° Southeast 211 243 4,000 -667 Level FlightAware ADS-B
Tue 12:23:03 AM 30.0015 -95.6831 131° Southeast 209 241 3,900 -667 Descending FlightAware ADS-B
Tue 12:23:07 AM 29.9990 -95.6790 125° Southeast 209 241 3,900  Level FlightAware ADS-B
Tue 12:23:11 AM 29.9971 -95.6752 120° Southeast 208 239 3,900  Level FlightAware ADS-B
Tue 12:23:18 AM 29.9947 -95.6682 112° Southeast 208 239 3,900 -400 Level FlightAware ADS-B
Tue 12:23:26 AM 29.9930 -95.6594 103° East 205 236 3,800 -400 Descending FlightAware ADS-B
Tue 12:23:48 AM 29.9929 -95.6358 90° East 201 231 3,700 -324 Descending FlightAware ADS-B
Tue 12:24:03 AM 29.9929 -95.6197 90° East 192 221 3,600 -414 Descending FlightAware ADS-B
Tue 12:24:17 AM 29.9929 -95.6064 90° East 187 215 3,500 -375 Descending FlightAware ADS-B
Tue 12:25:07 AM 29.9931 -95.5567 90° East 187 215 3,200 -360 Descending FlightAware ADS-B

Login

Don't have an account? Register now (free) for customized features, flight alerts, and more!